Time;durP1;ratioP1;P1;durP2;ratioP2;P2;SDS_P1;SDS_P2;PMS_P1;PMS_P2;Temp;Humidity;BMP_temperature;BMP_pressure;BME280_temperature;BME280_humidity;BME280_pressure;Samples;Min_cycle;Max_cycle;Signal;HPM_P1;HPM_P2
2023/02/27 00:04:35;;;;;;;0.70;0.60;;;18.30;61.00;;;;;;10467981;28;20566;-24
2023/02/27 00:09:39;;;;;;;4.78;1.42;;;18.20;61.20;;;;;;10460305;28;20049;-26
2023/02/27 00:14:41;;;;;;;6.30;1.20;;;18.30;61.20;;;;;;10470859;28;20057;-23
2023/02/27 00:19:44;;;;;;;2.67;1.30;;;18.20;61.20;;;;;;10466012;28;20124;-26
2023/02/27 00:24:46;;;;;;;1.58;1.00;;;18.20;61.40;;;;;;10465475;28;20483;-25
2023/02/27 00:29:48;;;;;;;3.10;0.57;;;18.10;61.40;;;;;;10466565;28;20090;-25
2023/02/27 00:34:51;;;;;;;3.60;1.25;;;18.20;61.00;;;;;;10460888;28;20135;-23
2023/02/27 00:39:53;;;;;;;2.35;1.25;;;18.20;61.10;;;;;;10461959;28;20033;-25
2023/02/27 00:44:55;;;;;;;2.85;0.85;;;18.10;61.10;;;;;;10463784;28;20049;-23
2023/02/27 00:49:58;;;;;;;3.83;0.98;;;18.10;61.30;;;;;;10485116;28;20067;-24
2023/02/27 00:55:00;;;;;;;3.78;1.70;;;18.10;61.10;;;;;;10491053;28;20476;-24
2023/02/27 01:00:05;;;;;;;3.28;0.85;;;18.00;61.20;;;;;;10489192;28;20032;-25
2023/02/27 01:05:09;;;;;;;2.20;0.82;;;18.00;61.10;;;;;;10490345;28;20185;-23
2023/02/27 01:10:12;;;;;;;2.50;1.00;;;18.00;61.00;;;;;;10488909;28;20076;-23
2023/02/27 01:15:14;;;;;;;1.50;0.82;;;18.00;61.30;;;;;;10484013;28;20129;-24
2023/02/27 01:20:17;;;;;;;1.27;0.82;;;18.00;61.20;;;;;;10491816;28;20499;-25
2023/02/27 01:25:19;;;;;;;2.00;1.10;;;17.90;61.60;;;;;;10486105;28;20534;-25
2023/02/27 01:30:21;;;;;;;2.92;0.93;;;17.90;61.70;;;;;;10481828;28;20440;-23
2023/02/27 01:35:25;;;;;;;1.45;0.70;;;17.80;61.50;;;;;;10483047;28;20037;-25
2023/02/27 01:40:27;;;;;;;3.35;0.98;;;17.80;61.70;;;;;;10485342;28;20220;-24
2023/02/27 01:45:31;;;;;;;;;;;17.80;61.50;;;;;;10489571;28;20115;-24
2023/02/27 01:50:36;;;;;;;2.25;0.70;;;17.80;61.50;;;;;;10490238;28;19940;-23
2023/02/27 01:55:39;;;;;;;2.97;0.70;;;17.80;61.60;;;;;;10489794;28;20072;-23
2023/02/27 02:00:41;;;;;;;2.40;0.80;;;17.80;61.60;;;;;;10482274;28;20510;-24
2023/02/27 02:05:45;;;;;;;6.70;0.80;;;17.70;61.70;;;;;;10469272;28;20063;-22
2023/02/27 02:10:50;;;;;;;1.38;0.63;;;17.60;61.40;;;;;;10478804;28;20075;-23
2023/02/27 02:16:06;;;;;;;1.40;0.60;;;17.60;61.60;;;;;;10470753;28;20053;-23
2023/02/27 02:21:37;;;;;;;1.17;0.50;;;17.60;61.60;;;;;;10482827;28;20754;-24
2023/02/27 02:26:54;;;;;;;1.27;0.60;;;17.60;61.60;;;;;;10477869;28;20049;-24
2023/02/27 02:32:29;;;;;;;1.90;0.70;;;17.60;61.30;;;;;;10477382;28;20033;-25
2023/02/27 02:38:00;;;;;;;1.35;0.40;;;17.60;62.00;;;;;;10484948;28;20131;-24
2023/02/27 02:43:08;;;;;;;0.85;0.45;;;17.60;61.50;;;;;;10473328;28;20222;-24
2023/02/27 02:48:16;;;;;;;2.05;0.63;;;17.50;61.90;;;;;;10485623;28;20060;-25
2023/02/27 02:53:27;;;;;;;2.58;0.57;;;17.40;61.50;;;;;;10478952;28;20079;-24
2023/02/27 02:58:36;;;;;;;1.77;0.60;;;17.40;61.10;;;;;;10472724;28;20525;-24
2023/02/27 03:03:43;;;;;;;0.70;0.43;;;17.50;61.60;;;;;;10473725;28;20128;-24
2023/02/27 03:08:50;;;;;;;0.80;0.45;;;17.40;61.60;;;;;;10479500;28;20041;-25
2023/02/27 03:13:59;;;;;;;1.15;0.50;;;17.40;61.90;;;;;;10486723;28;20056;-23
2023/02/27 03:19:07;;;;;;;1.10;0.63;;;17.40;61.80;;;;;;10475515;28;20072;-25
2023/02/27 03:24:14;;;;;;;3.75;0.55;;;17.40;61.50;;;;;;10486446;28;20476;-26
2023/02/27 03:29:23;;;;;;;1.30;0.50;;;17.30;61.90;;;;;;10490673;28;20115;-24
2023/02/27 03:34:30;;;;;;;0.57;0.32;;;17.30;61.50;;;;;;10495056;28;20124;-25
2023/02/27 03:39:40;;;;;;;0.50;0.40;;;17.20;61.80;;;;;;10494056;28;20240;-23
2023/02/27 03:44:54;;;;;;;0.55;0.40;;;17.20;61.90;;;;;;10494517;28;20036;-24
2023/02/27 03:49:56;;;;;;;4.50;0.60;;;17.30;61.70;;;;;;10489211;28;20111;-25
2023/02/27 03:55:01;;;;;;;0.75;0.57;;;17.20;61.80;;;;;;10491314;28;20052;-25
2023/02/27 04:00:07;;;;;;;0.90;0.40;;;17.20;61.70;;;;;;10493322;28;20123;-25
2023/02/27 04:05:09;;;;;;;0.55;0.40;;;17.10;62.00;;;;;;10491025;28;20039;-24
2023/02/27 04:10:21;;;;;;;1.30;0.60;;;17.10;62.10;;;;;;10495777;28;20121;-23
2023/02/27 04:15:33;;;;;;;1.58;0.57;;;17.10;61.70;;;;;;10482842;28;20501;-25
2023/02/27 04:20:41;;;;;;;1.33;0.50;;;17.00;61.60;;;;;;10489624;28;20125;-24
2023/02/27 04:26:02;;;;;;;1.08;0.40;;;17.00;61.90;;;;;;10503522;28;20137;-24
2023/02/27 04:31:14;;;;;;;0.65;0.40;;;17.00;61.70;;;;;;10490491;28;20039;-24
2023/02/27 04:36:22;;;;;;;0.50;0.30;;;17.00;62.00;;;;;;10490971;28;20525;-24
2023/02/27 04:41:29;;;;;;;0.52;0.50;;;16.90;61.90;;;;;;10490368;28;20096;-24
2023/02/27 04:46:33;;;;;;;0.57;0.28;;;16.90;62.00;;;;;;10490530;28;20441;-24
2023/02/27 04:51:38;;;;;;;0.80;0.30;;;16.90;61.80;;;;;;10493110;28;20070;-24
2023/02/27 04:56:44;;;;;;;0.98;0.30;;;16.90;62.00;;;;;;10490358;28;20083;-24
2023/02/27 05:01:53;;;;;;;2.42;0.52;;;16.80;62.00;;;;;;10497819;28;20045;-26
2023/02/27 05:06:56;;;;;;;1.10;0.50;;;16.90;61.60;;;;;;10487746;28;20075;-23
2023/02/27 05:12:02;;;;;;;1.25;0.40;;;17.10;60.70;;;;;;10483492;28;20055;-24
2023/02/27 05:17:09;;;;;;;2.95;0.55;;;17.30;60.10;;;;;;10487108;28;20098;-24
2023/02/27 05:22:24;;;;;;;1.38;0.40;;;17.40;59.70;;;;;;10486854;28;20044;-23
2023/02/27 05:27:42;;;;;;;1.17;0.43;;;17.60;59.40;;;;;;10470134;28;20033;-25
2023/02/27 05:32:50;;;;;;;1.73;0.50;;;17.70;59.20;;;;;;10465218;28;20055;-24
2023/02/27 05:37:59;;;;;;;1.20;0.40;;;17.70;59.20;;;;;;10459465;28;20673;-22
2023/02/27 05:43:06;;;;;;;0.75;0.47;;;17.70;59.00;;;;;;10458404;28;20127;-23
2023/02/27 05:48:14;;;;;;;0.52;0.20;;;17.70;59.10;;;;;;10457589;28;20036;-22
2023/02/27 05:53:19;;;;;;;0.77;0.50;;;17.70;59.10;;;;;;10462295;28;20538;-24
2023/02/27 05:58:25;;;;;;;1.30;0.30;;;17.80;59.00;;;;;;10460500;28;20048;-24
2023/02/27 06:03:31;;;;;;;0.75;0.40;;;17.80;59.00;;;;;;10471260;28;20124;-22
2023/02/27 06:08:33;;;;;;;1.45;0.40;;;17.80;58.90;;;;;;10459341;28;20124;-25
2023/02/27 06:13:35;;;;;;;2.10;0.50;;;17.80;59.00;;;;;;10467817;28;20140;-25
2023/02/27 06:18:38;;;;;;;0.57;0.40;;;17.80;59.00;;;;;;10480176;28;20581;-25
2023/02/27 06:23:40;;;;;;;0.43;0.40;;;17.80;59.10;;;;;;10482334;28;20075;-25
2023/02/27 06:28:42;;;;;;;0.88;0.40;;;17.80;59.30;;;;;;10488536;28;20048;-23
2023/02/27 06:33:45;;;;;;;1.70;0.50;;;17.80;59.20;;;;;;10489985;28;20049;-28
2023/02/27 06:38:47;;;;;;;1.85;0.30;;;17.70;59.20;;;;;;10468562;28;20504;-25
2023/02/27 06:43:49;;;;;;;3.20;0.32;;;17.70;59.30;;;;;;10472155;28;20699;-26
2023/02/27 06:48:52;;;;;;;3.75;0.75;;;17.70;59.20;;;;;;10461494;28;20062;-21
2023/02/27 06:53:54;;;;;;;0.93;0.45;;;17.70;59.30;;;;;;10475231;28;20122;-25
2023/02/27 06:58:56;;;;;;;1.05;0.60;;;17.70;59.20;;;;;;10477979;28;20075;-25
2023/02/27 07:14:14;;;;;;;0.95;0.32;;;17.70;58.50;;;;;;10501005;27;1284055;-25
2023/02/27 07:19:17;;;;;;;4.50;0.68;;;17.80;59.00;;;;;;10524408;28;20044;-25
2023/02/27 07:24:19;;;;;;;2.53;0.68;;;17.70;58.80;;;;;;10515372;28;20047;-25
2023/02/27 07:29:22;;;;;;;0.70;0.40;;;17.70;58.70;;;;;;10522854;28;21098;-23
2023/02/27 07:34:24;;;;;;;2.20;0.40;;;17.80;58.90;;;;;;10519842;28;20216;-24
2023/02/27 07:39:26;;;;;;;2.50;0.65;;;17.80;59.10;;;;;;10520441;28;20135;-31
2023/02/27 07:44:29;;;;;;;1.60;0.43;;;17.80;59.40;;;;;;10517096;28;20079;-24
2023/02/27 07:49:31;;;;;;;1.33;0.52;;;17.70;59.40;;;;;;10520759;28;20506;-25
2023/02/27 07:54:33;;;;;;;2.55;0.68;;;17.70;59.50;;;;;;10519441;28;20409;-25
2023/02/27 07:59:36;;;;;;;1.25;0.50;;;17.60;59.60;;;;;;10525459;28;20052;-25
2023/02/27 08:04:38;;;;;;;2.30;0.70;;;17.60;59.70;;;;;;10518567;28;20147;-24
2023/02/27 08:09:40;;;;;;;1.40;0.57;;;17.50;59.90;;;;;;10516231;28;20143;-24
2023/02/27 08:14:43;;;;;;;1.77;0.60;;;17.50;60.00;;;;;;10507022;28;20565;-24
2023/02/27 08:19:45;;;;;;;1.83;0.60;;;17.40;60.10;;;;;;10507127;28;21036;-24
2023/02/27 08:24:47;;;;;;;4.55;0.90;;;17.40;60.10;;;;;;10488161;28;20105;-24
2023/02/27 08:29:50;;;;;;;2.15;0.63;;;17.40;60.00;;;;;;10484848;28;20502;-24
2023/02/27 08:34:52;;;;;;;2.35;0.68;;;17.30;60.20;;;;;;10483605;28;20132;-24
2023/02/27 08:39:54;;;;;;;2.55;0.73;;;17.30;60.20;;;;;;10491676;28;20045;-25
2023/02/27 08:44:57;;;;;;;1.90;0.68;;;17.30;60.40;;;;;;10488561;28;20128;-25
2023/02/27 08:49:59;;;;;;;1.75;0.70;;;17.30;60.40;;;;;;10483461;28;20209;-24
2023/02/27 08:55:01;;;;;;;2.90;0.80;;;17.20;60.40;;;;;;10489271;28;20496;-24
2023/02/27 09:00:06;;;;;;;4.05;0.93;;;17.20;60.30;;;;;;10483552;28;20481;-26
2023/02/27 09:05:09;;;;;;;1.75;0.82;;;17.30;60.10;;;;;;10490765;28;20037;-25
2023/02/27 09:10:12;;;;;;;2.95;0.75;;;17.20;60.70;;;;;;10491064;28;20060;-24
2023/02/27 09:15:15;;;;;;;3.35;1.00;;;17.30;59.90;;;;;;10486521;28;20037;-26
2023/02/27 09:20:17;;;;;;;5.35;0.63;;;17.30;60.00;;;;;;10482923;28;20036;-27
2023/02/27 09:25:19;;;;;;;3.00;0.80;;;17.30;59.80;;;;;;10489746;28;20055;-24
2023/02/27 09:30:23;;;;;;;2.00;0.93;;;17.30;59.50;;;;;;10490636;28;20072;-26
2023/02/27 09:35:25;;;;;;;3.22;1.00;;;17.30;59.40;;;;;;10487993;28;20068;-25
2023/02/27 09:40:29;;;;;;;1.85;0.63;;;17.30;59.40;;;;;;10483629;28;20071;-25
2023/02/27 09:45:37;;;;;;;3.47;0.82;;;17.30;59.10;;;;;;10489608;28;20586;-27
2023/02/27 09:50:42;;;;;;;3.53;1.05;;;17.30;59.50;;;;;;10477087;28;20048;-24
2023/02/27 09:55:46;;;;;;;2.80;1.00;;;17.30;59.10;;;;;;10481093;28;20044;-24
2023/02/27 10:00:55;;;;;;;1.88;1.13;;;17.40;58.60;;;;;;10488892;28;20155;-25
2023/02/27 10:06:13;;;;;;;2.47;1.20;;;17.50;58.30;;;;;;10481667;28;20036;-25
2023/02/27 10:11:33;;;;;;;4.63;0.75;;;17.40;58.60;;;;;;10490028;28;20040;-24
2023/02/27 10:16:43;;;;;;;4.80;1.35;;;17.50;58.30;;;;;;10482339;28;20491;-24
2023/02/27 10:21:57;;;;;;;2.22;0.93;;;17.50;58.30;;;;;;10485270;28;20044;-25
2023/02/27 10:27:04;;;;;;;2.33;0.77;;;17.30;58.90;;;;;;10488801;28;20051;-24
2023/02/27 10:32:20;;;;;;;1.75;0.68;;;17.40;57.20;;;;;;10490676;28;20110;-24
2023/02/27 10:37:25;;;;;;;1.30;0.65;;;17.40;58.90;;;;;;10491807;28;20051;-23
2023/02/27 10:42:32;;;;;;;3.00;0.73;;;17.50;58.30;;;;;;10478886;28;20072;-24
2023/02/27 10:47:37;;;;;;;1.30;0.60;;;17.50;58.10;;;;;;10486593;28;20044;-23
2023/02/27 10:52:49;;;;;;;2.85;1.20;;;17.40;58.50;;;;;;10485487;28;20049;-25
2023/02/27 10:57:54;;;;;;;1.50;0.80;;;17.50;57.80;;;;;;10486346;28;20049;-24
2023/02/27 11:02:58;;;;;;;1.70;0.63;;;17.40;58.20;;;;;;10479747;28;20045;-24
2023/02/27 11:08:13;;;;;;;1.25;0.50;;;17.40;58.50;;;;;;10487091;28;20052;-28
2023/02/27 11:13:20;;;;;;;7.40;0.52;;;17.40;58.30;;;;;;10480315;28;20061;-24
2023/02/27 11:18:28;;;;;;;1.38;0.40;;;17.50;58.20;;;;;;10485705;28;20048;-25
2023/02/27 11:23:32;;;;;;;1.08;0.75;;;17.20;59.00;;;;;;10479407;28;20344;-24
2023/02/27 11:28:34;;;;;;;3.42;1.50;;;17.20;58.50;;;;;;10479574;28;20479;-23
2023/02/27 11:33:41;;;;;;;2.17;1.13;;;17.30;58.80;;;;;;10479847;28;20071;-24
2023/02/27 11:38:51;;;;;;;4.15;1.27;;;17.60;58.00;;;;;;10476904;28;20047;-25
2023/02/27 11:43:54;;;;;;;1.23;0.68;;;17.50;58.30;;;;;;10483655;28;20500;-24
2023/02/27 11:49:10;;;;;;;1.95;1.00;;;17.40;58.20;;;;;;10485038;28;20045;-24
2023/02/27 11:54:20;;;;;;;3.42;1.42;;;17.40;58.00;;;;;;10485006;28;20134;-24
2023/02/27 11:59:38;;;;;;;1.52;0.85;;;17.60;57.90;;;;;;10490830;28;20155;-24
2023/02/27 12:04:48;;;;;;;1.85;0.93;;;17.60;57.80;;;;;;10492028;28;21021;-23
2023/02/27 12:09:59;;;;;;;1.45;0.68;;;17.60;56.30;;;;;;10486241;28;20080;-24
2023/02/27 12:15:10;;;;;;;0.70;0.40;;;17.50;58.00;;;;;;10490526;28;20664;-27
2023/02/27 12:20:32;;;;;;;1.35;0.70;;;17.60;58.20;;;;;;10491018;28;20040;-26
2023/02/27 12:25:39;;;;;;;5.65;0.63;;;17.80;58.30;;;;;;10488273;28;20044;-25
2023/02/27 12:30:46;;;;;;;2.25;1.20;;;17.80;58.40;;;;;;10486716;28;20440;-24
2023/02/27 12:35:57;;;;;;;2.53;1.30;;;17.70;58.30;;;;;;10485913;28;20048;-25
2023/02/27 12:41:15;;;;;;;2.28;1.50;;;17.60;58.40;;;;;;10478741;28;20044;-24
2023/02/27 12:46:36;;;;;;;5.45;1.52;;;17.70;55.80;;;;;;10486547;28;20474;-25
2023/02/27 12:51:49;;;;;;;6.82;1.10;;;17.50;59.00;;;;;;10488603;28;20114;-24
2023/02/27 12:57:01;;;;;;;1.38;0.60;;;17.80;57.40;;;;;;10489360;28;20435;-24
2023/02/27 13:02:25;;;;;;;1.45;0.80;;;17.70;57.80;;;;;;10489663;28;20072;-24
2023/02/27 13:07:33;;;;;;;2.92;1.10;;;17.80;57.90;;;;;;10491024;28;20037;-25
2023/02/27 13:12:43;;;;;;;3.20;1.17;;;17.80;55.20;;;;;;10484993;28;20052;-24
2023/02/27 13:17:48;;;;;;;2.58;1.15;;;17.60;57.70;;;;;;10483607;28;20498;-25
2023/02/27 13:22:56;;;;;;;2.63;0.98;;;17.80;57.10;;;;;;10485694;28;20051;-25
2023/02/27 13:28:01;;;;;;;1.20;0.90;;;17.90;55.30;;;;;;10496381;28;20113;-26
2023/02/27 13:33:21;;;;;;;2.72;1.00;;;17.80;58.00;;;;;;10492331;28;20123;-24
2023/02/27 13:38:42;;;;;;;3.53;1.35;;;17.80;57.30;;;;;;10490219;28;20052;-24
2023/02/27 13:43:44;;;;;;;2.05;1.10;;;17.80;58.10;;;;;;10488735;28;20049;-23
2023/02/27 13:48:49;;;;;;;2.05;0.57;;;17.80;58.70;;;;;;10491966;28;20484;-24
2023/02/27 13:54:08;;;;;;;2.42;1.08;;;17.90;57.20;;;;;;10486589;28;20040;-25
2023/02/27 13:59:19;;;;;;;1.95;0.80;;;18.20;55.80;;;;;;10480255;28;20040;-25
2023/02/27 14:04:23;;;;;;;1.38;0.80;;;18.20;56.40;;;;;;10486646;28;20060;-24
2023/02/27 14:09:34;;;;;;;2.55;0.68;;;18.50;55.90;;;;;;10478516;28;20131;-24
2023/02/27 14:14:44;;;;;;;1.75;0.70;;;18.50;55.10;;;;;;10482980;28;20044;-23
2023/02/27 14:19:55;;;;;;;3.40;1.10;;;19.00;54.90;;;;;;10480686;28;20120;-25
2023/02/27 14:25:05;;;;;;;5.45;0.93;;;19.10;55.40;;;;;;10485589;28;20064;-24
2023/02/27 14:30:21;;;;;;;4.68;0.90;;;19.30;54.70;;;;;;10489036;28;20048;-25
2023/02/27 14:35:24;;;;;;;4.45;0.45;;;19.40;54.60;;;;;;10483860;28;20135;-24
2023/02/27 14:40:33;;;;;;;2.05;0.73;;;19.50;54.00;;;;;;10486649;28;20071;-24
2023/02/27 14:45:35;;;;;;;2.05;0.80;;;19.70;54.20;;;;;;10487073;28;20492;-24
2023/02/27 14:50:40;;;;;;;1.67;1.10;;;19.70;54.20;;;;;;10486354;28;20075;-24
2023/02/27 14:55:53;;;;;;;2.05;0.70;;;19.90;54.10;;;;;;10483594;28;20041;-23
2023/02/27 15:01:06;;;;;;;4.95;1.10;;;19.90;53.80;;;;;;10477361;28;20036;-24
2023/02/27 15:06:17;;;;;;;2.03;1.02;;;20.10;53.70;;;;;;10487343;28;20119;-24
2023/02/27 15:11:22;;;;;;;1.05;0.70;;;20.20;53.60;;;;;;10479073;28;20079;-23
2023/02/27 15:16:37;;;;;;;1.38;0.60;;;20.20;53.60;;;;;;10482024;28;20048;-24
2023/02/27 15:21:41;;;;;;;1.55;0.68;;;20.30;53.80;;;;;;10480562;28;20044;-25
2023/02/27 15:26:47;;;;;;;1.63;0.52;;;20.20;53.50;;;;;;10483443;28;20122;-28
2023/02/27 15:31:50;;;;;;;3.55;0.60;;;20.40;52.90;;;;;;10479413;28;20151;-24
2023/02/27 15:36:55;;;;;;;2.20;0.52;;;20.40;53.00;;;;;;10496732;28;20047;-25
2023/02/27 15:42:02;;;;;;;1.45;0.30;;;20.40;53.20;;;;;;10493371;28;20045;-31
2023/02/27 15:47:05;;;;;;;3.38;0.40;;;20.50;52.90;;;;;;10495798;28;20064;-27
2023/02/27 15:52:14;;;;;;;4.88;0.40;;;20.30;53.80;;;;;;10492945;28;20151;-25
2023/02/27 15:57:19;;;;;;;0.85;0.40;;;20.40;52.70;;;;;;10488184;28;20037;-28
2023/02/27 16:02:23;;;;;;;2.45;0.40;;;20.40;52.80;;;;;;10493100;28;20040;-25
2023/02/27 16:07:28;;;;;;;0.93;0.35;;;20.50;52.60;;;;;;10492892;28;20469;-25
2023/02/27 16:12:33;;;;;;;0.30;0.20;;;20.50;52.60;;;;;;10490904;28;20121;-29
2023/02/27 16:17:35;;;;;;;2.72;0.40;;;20.60;52.50;;;;;;10492346;28;20049;-26
2023/02/27 16:22:38;;;;;;;3.58;0.35;;;20.50;52.60;;;;;;10495956;28;20056;-25
2023/02/27 16:27:49;;;;;;;1.17;0.40;;;20.50;52.70;;;;;;10492801;28;20389;-26
2023/02/27 16:32:58;;;;;;;2.87;0.50;;;20.50;52.60;;;;;;10487595;28;20064;-25
2023/02/27 16:38:01;;;;;;;0.73;0.30;;;20.40;52.40;;;;;;10497501;28;20067;-27
2023/02/27 16:43:04;;;;;;;1.77;0.38;;;20.50;52.60;;;;;;10502817;28;20110;-24
2023/02/27 16:48:06;;;;;;;1.77;0.30;;;20.50;53.20;;;;;;10485822;28;20102;-26
2023/02/27 16:53:08;;;;;;;2.75;0.50;;;20.30;53.20;;;;;;10488852;28;20129;-24
2023/02/27 16:58:14;;;;;;;2.88;0.47;;;20.20;54.20;;;;;;10492196;28;20064;-27
2023/02/27 17:03:16;;;;;;;3.30;0.57;;;20.00;54.30;;;;;;10490980;28;20463;-25
2023/02/27 17:08:21;;;;;;;10.98;0.90;;;20.30;53.40;;;;;;10477202;28;20532;-24
2023/02/27 17:13:24;;;;;;;4.47;1.00;;;20.40;53.80;;;;;;10491795;28;20431;-24
2023/02/27 17:18:26;;;;;;;4.97;1.17;;;20.50;53.80;;;;;;10488899;28;20151;-31
2023/02/27 17:23:28;;;;;;;;;;;20.50;53.90;;;;;;10483195;28;20075;-26
2023/02/27 17:28:31;;;;;;;4.47;1.00;;;20.30;53.60;;;;;;10488752;28;19958;-24
2023/02/27 17:33:33;;;;;;;7.93;1.00;;;20.40;54.10;;;;;;10487609;28;20049;-25
2023/02/27 17:38:36;;;;;;;5.63;1.45;;;20.40;54.40;;;;;;10487101;28;20051;-25
2023/02/27 17:43:40;;;;;;;7.07;1.10;;;20.30;54.40;;;;;;10492021;28;20063;-24
2023/02/27 17:48:42;;;;;;;2.08;1.08;;;20.30;54.40;;;;;;10482120;28;20037;-24
2023/02/27 17:53:44;;;;;;;4.82;1.30;;;20.30;54.50;;;;;;10479593;28;20155;-25
2023/02/27 17:58:48;;;;;;;7.60;1.50;;;20.30;54.60;;;;;;10483036;28;20469;-24
2023/02/27 18:03:49;;;;;;;7.38;2.17;;;20.10;55.00;;;;;;10487829;28;20041;-25
2023/02/27 18:08:51;;;;;;;5.80;0.93;;;19.90;56.40;;;;;;10478775;28;20491;-24
2023/02/27 18:13:55;;;;;;;3.35;1.80;;;19.80;56.30;;;;;;10483991;28;20820;-26
2023/02/27 18:18:57;;;;;;;4.53;2.00;;;19.70;56.60;;;;;;10478222;28;20048;-22
2023/02/27 18:23:59;;;;;;;8.57;1.88;;;19.60;57.00;;;;;;10477822;28;20052;-22
2023/02/27 18:29:04;;;;;;;4.60;1.67;;;19.40;57.50;;;;;;10472492;28;21000;-24
2023/02/27 18:34:07;;;;;;;6.50;2.47;;;19.30;57.50;;;;;;10484167;28;20138;-23
2023/02/27 18:39:10;;;;;;;3.47;1.50;;;19.30;57.40;;;;;;10495493;28;20094;-24
2023/02/27 18:44:13;;;;;;;4.32;1.60;;;19.30;57.50;;;;;;10486096;28;20123;-25
2023/02/27 18:49:15;;;;;;;7.28;2.08;;;19.30;57.70;;;;;;10485104;28;20052;-24
2023/02/27 18:54:17;;;;;;;10.32;2.38;;;19.20;57.80;;;;;;10484815;28;20093;-26
2023/02/27 18:59:20;;;;;;;4.63;1.90;;;19.20;57.60;;;;;;10478895;28;20056;-24
2023/02/27 19:04:24;;;;;;;4.28;1.80;;;19.20;57.70;;;;;;10484205;28;20037;-24
2023/02/27 19:09:31;;;;;;;5.70;1.73;;;19.20;58.00;;;;;;10485926;28;20057;-24
2023/02/27 19:14:34;;;;;;;3.60;1.85;;;19.10;57.70;;;;;;10481837;28;20251;-35
2023/02/27 19:19:36;;;;;;;3.45;2.00;;;19.20;57.70;;;;;;10479391;28;20045;-25
2023/02/27 19:24:38;;;;;;;6.10;1.50;;;19.20;57.70;;;;;;10487040;28;20113;-26
2023/02/27 19:29:41;;;;;;;2.35;1.00;;;19.60;57.00;;;;;;10481148;28;20740;-33
2023/02/27 19:34:43;;;;;;;3.58;1.13;;;19.70;56.70;;;;;;10483662;28;20140;-26
2023/02/27 19:39:45;;;;;;;2.50;0.95;;;19.70;56.60;;;;;;10485324;28;20068;-29
2023/02/27 19:44:48;;;;;;;3.92;0.90;;;19.80;56.50;;;;;;10481000;28;20061;-25
2023/02/27 19:49:50;;;;;;;1.98;0.70;;;19.80;56.40;;;;;;10481783;28;20076;-26
2023/02/27 19:54:53;;;;;;;1.92;0.80;;;19.80;56.50;;;;;;10482976;28;20604;-25
2023/02/27 19:59:56;;;;;;;2.42;0.88;;;19.60;56.80;;;;;;10481995;28;20040;-27
2023/02/27 20:04:58;;;;;;;1.48;0.65;;;19.40;57.00;;;;;;10483685;28;20041;-25
2023/02/27 20:10:00;;;;;;;5.88;0.80;;;19.30;57.60;;;;;;10481457;28;20508;-23
2023/02/27 20:15:08;;;;;;;5.32;1.10;;;19.40;57.90;;;;;;10465723;28;20136;-29
2023/02/27 20:20:11;;;;;;;6.47;1.30;;;19.50;57.30;;;;;;10487414;28;20052;-25
2023/02/27 20:25:13;;;;;;;6.13;1.20;;;19.60;57.10;;;;;;10493107;28;20070;-24
2023/02/27 20:30:17;;;;;;;6.28;0.80;;;19.60;57.10;;;;;;10477726;28;20369;-26
2023/02/27 20:35:18;;;;;;;4.95;1.40;;;19.00;57.90;;;;;;10489159;28;20173;-25
2023/02/27 20:40:20;;;;;;;7.55;1.58;;;18.80;58.20;;;;;;10489874;28;20071;-25
2023/02/27 20:45:24;;;;;;;12.98;1.50;;;18.70;58.30;;;;;;10484405;28;20128;-25
2023/02/27 20:50:26;;;;;;;9.23;2.03;;;18.90;58.70;;;;;;10484892;28;20090;-25
2023/02/27 20:55:27;;;;;;;13.98;1.85;;;19.10;58.30;;;;;;10482488;28;20170;-26
2023/02/27 21:00:31;;;;;;;7.20;1.55;;;19.30;57.60;;;;;;10484267;28;20111;-24
2023/02/27 21:05:32;;;;;;;13.35;1.75;;;19.60;56.90;;;;;;10477609;28;20144;-24
2023/02/27 21:10:38;;;;;;;8.85;1.50;;;19.40;57.20;;;;;;10482292;28;20489;-26
2023/02/27 21:15:43;;;;;;;10.07;1.77;;;19.40;57.40;;;;;;10482300;28;20055;-25
2023/02/27 21:20:45;;;;;;;6.25;1.25;;;19.40;57.30;;;;;;10482587;28;20594;-33
2023/02/27 21:25:47;;;;;;;6.95;1.83;;;19.40;57.40;;;;;;10487965;28;20051;-26
2023/02/27 21:30:53;;;;;;;6.50;1.35;;;19.40;57.60;;;;;;10485253;28;20036;-26
2023/02/27 21:35:55;;;;;;;10.20;1.83;;;19.40;57.70;;;;;;10474716;28;20045;-23
2023/02/27 21:40:57;;;;;;;10.32;1.73;;;19.40;57.70;;;;;;10482508;28;20070;-26
2023/02/27 21:46:05;;;;;;;9.57;1.63;;;19.30;57.90;;;;;;10481416;28;20540;-24
2023/02/27 21:51:07;;;;;;;13.68;1.73;;;19.20;58.00;;;;;;10489766;28;20638;-25
2023/02/27 21:56:10;;;;;;;7.47;1.40;;;19.20;58.10;;;;;;10485857;28;20048;-24
2023/02/27 22:01:15;;;;;;;6.25;2.03;;;19.20;58.10;;;;;;10485050;28;20468;-25
2023/02/27 22:06:19;;;;;;;8.38;1.30;;;19.10;58.20;;;;;;10489815;28;20037;-25
2023/02/27 22:11:21;;;;;;;4.40;1.00;;;19.10;58.10;;;;;;10477955;28;20473;-27
2023/02/27 22:16:25;;;;;;;7.68;1.40;;;19.00;58.20;;;;;;10487955;28;20128;-24
2023/02/27 22:21:27;;;;;;;5.30;1.40;;;19.00;58.10;;;;;;10489692;28;20040;-25
2023/02/27 22:26:29;;;;;;;8.13;1.73;;;18.90;58.20;;;;;;10485272;28;20076;-24
2023/02/27 22:31:34;;;;;;;4.75;0.95;;;18.80;58.10;;;;;;10486686;28;20055;-24
2023/02/27 22:36:37;;;;;;;2.97;0.93;;;18.80;58.20;;;;;;10490257;28;20123;-24
2023/02/27 22:41:40;;;;;;;6.18;1.70;;;18.70;58.30;;;;;;10485080;28;20040;-23
2023/02/27 22:46:45;;;;;;;2.35;1.10;;;18.70;58.20;;;;;;10469826;28;20070;-24
2023/02/27 22:51:48;;;;;;;5.38;1.20;;;18.70;58.10;;;;;;10471771;28;20075;-24
2023/02/27 22:56:52;;;;;;;4.90;1.05;;;18.60;58.20;;;;;;10485275;28;20463;-24
2023/02/27 23:01:55;;;;;;;2.45;1.08;;;18.60;58.10;;;;;;10486258;28;20040;-25
2023/02/27 23:06:57;;;;;;;3.97;1.20;;;18.70;58.00;;;;;;10480526;28;20049;-25
2023/02/27 23:12:01;;;;;;;1.35;0.77;;;18.50;58.10;;;;;;10481853;28;20898;-24
2023/02/27 23:17:04;;;;;;;3.70;1.10;;;18.50;58.30;;;;;;10486049;28;20053;-22
2023/02/27 23:22:06;;;;;;;3.72;1.27;;;18.50;58.20;;;;;;10475453;28;20045;-24
2023/02/27 23:27:11;;;;;;;3.63;0.90;;;18.50;58.00;;;;;;10485011;28;20071;-24
2023/02/27 23:32:14;;;;;;;1.85;0.77;;;18.50;58.00;;;;;;10485540;28;20071;-24
2023/02/27 23:37:16;;;;;;;6.60;1.30;;;18.50;58.20;;;;;;10479451;28;20084;-24
2023/02/27 23:42:17;;;;;;;3.35;1.10;;;18.40;57.90;;;;;;10487058;28;20068;-23
2023/02/27 23:52:40;;;;;;;2.30;0.80;;;18.40;58.00;;;;;;10482054;28;20040;-25
2023/02/27 23:57:42;;;;;;;2.35;1.10;;;18.30;57.90;;;;;;10504190;28;20044;-23
